Terminal Aerodrome Forecast
Issued by NWS

Home | Current Version | Previous Version | Graphics & Text | Print | Product List | Glossary On
Versions: 1 2 3 4 5 6 7 8 9 10 11 12 13 14 15 16 17 18 19 20 21 22 23 24 25
000
FTUS43 KABR 131728
TAFATY
TAF
KATY 131728Z 1318/1418 33023G33KT P6SM OVC015
     FM132000 33026G36KT P6SM OVC020
     FM140000 34018G25KT P6SM OVC025
     FM140400 34010KT P6SM BKN020
     FM141300 30006KT P6SM BKN015=

USA.gov is the U.S. government's official web portal to all federal, state and local government web resources and services.